Time,TemperatureF,DewpointF,PressureIn,WindDirection,WindDirectionDegrees,WindSpeedMPH,WindSpeedGustMPH,Humidity,HourlyPrecipIn,Conditions,Clouds,dailyrainin,SoftwareType,DateUTC
2013-05-13 00:09:00,55.6,28.0,30.02,South,176,1.0,8.0,35,0.00,,,0.00,weatherlink.com 1.10,2013-05-13 06:09:00,
2013-05-13 00:24:00,55.5,27.0,30.02,SSW,210,3.0,6.0,34,0.00,,,0.00,weatherlink.com 1.10,2013-05-13 06:24:00,
2013-05-13 00:39:00,53.2,28.0,30.02,SE,131,4.0,5.0,38,0.00,,,0.00,weatherlink.com 1.10,2013-05-13 06:39:00,
2013-05-13 00:54:00,55.8,28.0,30.01,East,79,5.0,6.0,34,0.00,,,0.00,weatherlink.com 1.10,2013-05-13 06:54:00,
2013-05-13 01:09:00,56.5,28.0,30.00,SE,124,5.0,8.0,33,0.00,,,0.00,weatherlink.com 1.10,2013-05-13 07:09:00,
2013-05-13 01:24:00,56.7,28.0,30.00,SE,138,0.0,8.0,33,0.00,,,0.00,weatherlink.com 1.10,2013-05-13 07:24:00,
2013-05-13 01:40:00,56.5,28.0,30.00,SE,137,1.0,8.0,34,0.00,,,0.00,weatherlink.com 1.10,2013-05-13 07:40:00,
2013-05-13 01:55:00,56.6,28.0,29.99,SE,127,1.0,5.0,34,0.00,,,0.00,weatherlink.com 1.10,2013-05-13 07:55:00,
2013-05-13 02:10:00,55.3,29.0,29.99,SE,130,0.0,2.0,36,0.00,,,0.00,weatherlink.com 1.10,2013-05-13 08:10:00,
2013-05-13 02:25:00,55.2,28.0,29.98,East,91,6.0,10.0,36,0.00,,,0.00,weatherlink.com 1.10,2013-05-13 08:25:00,
2013-05-13 02:40:00,57.1,29.0,29.98,ESE,113,1.0,11.0,34,0.00,,,0.00,weatherlink.com 1.10,2013-05-13 08:40:00,
2013-05-13 02:55:00,57.2,29.0,29.97,ESE,114,4.0,10.0,34,0.00,,,0.00,weatherlink.com 1.10,2013-05-13 08:55:00,
2013-05-13 03:10:00,57.1,28.0,29.96,SE,128,1.0,9.0,33,0.00,,,0.00,weatherlink.com 1.10,2013-05-13 09:10:00,
2013-05-13 03:25:00,56.7,29.0,29.96,East,96,2.0,6.0,35,0.00,,,0.00,weatherlink.com 1.10,2013-05-13 09:25:00,
2013-05-13 03:40:00,52.9,29.0,29.96,East,95,4.0,5.0,40,0.00,,,0.00,weatherlink.com 1.10,2013-05-13 09:40:00,
2013-05-13 03:55:00,53.1,30.0,29.95,ESE,106,1.0,3.0,42,0.00,,,0.00,weatherlink.com 1.10,2013-05-13 09:55:00,
2013-05-13 04:10:00,53.2,30.0,29.95,SE,127,1.0,4.0,41,0.00,,,0.00,weatherlink.com 1.10,2013-05-13 10:10:00,
2013-05-13 04:25:00,51.4,29.0,29.96,SE,139,0.0,4.0,43,0.00,,,0.00,weatherlink.com 1.10,2013-05-13 10:25:00,
2013-05-13 04:40:00,51.8,30.0,29.96,SE,135,0.0,3.0,44,0.00,,,0.00,weatherlink.com 1.10,2013-05-13 10:40:00,
2013-05-13 04:55:00,51.7,30.0,29.96,SE,144,0.0,5.0,43,0.00,,,0.00,weatherlink.com 1.10,2013-05-13 10:55:00,
2013-05-13 05:10:00,52.2,30.0,29.97,SE,143,0.0,2.0,43,0.00,,,0.00,weatherlink.com 1.10,2013-05-13 11:10:00,
2013-05-13 05:25:00,49.7,32.0,29.96,SE,126,0.0,1.0,50,0.00,,,0.00,weatherlink.com 1.10,2013-05-13 11:25:00,
2013-05-13 05:40:00,46.8,31.0,29.96,East,93,2.0,2.0,55,0.00,,,0.00,weatherlink.com 1.10,2013-05-13 11:40:00,
2013-05-13 05:55:00,44.8,30.0,29.98,ESE,109,0.0,2.0,57,0.00,,,0.00,weatherlink.com 1.10,2013-05-13 11:55:00,
2013-05-13 06:10:00,43.7,30.0,29.98,SE,131,0.0,2.0,60,0.00,,,0.00,weatherlink.com 1.10,2013-05-13 12:10:00,
2013-05-13 06:25:00,43.1,32.0,29.98,East,96,0.0,2.0,65,0.00,,,0.00,weatherlink.com 1.10,2013-05-13 12:25:00,
2013-05-13 06:40:00,44.4,32.0,29.99,ESE,115,1.0,2.0,62,0.00,,,0.00,weatherlink.com 1.10,2013-05-13 12:40:00,
2013-05-13 06:55:00,44.7,33.0,29.99,ESE,115,0.0,1.0,65,0.00,,,0.00,weatherlink.com 1.10,2013-05-13 12:55:00,
2013-05-13 07:10:00,46.2,35.0,30.00,ESE,115,0.0,0.0,65,0.00,,,0.00,weatherlink.com 1.10,2013-05-13 13:10:00,
2013-05-13 07:25:00,49.2,35.0,30.00,ESE,117,0.0,1.0,59,0.00,,,0.00,weatherlink.com 1.10,2013-05-13 13:25:00,
2013-05-13 07:40:00,51.8,34.0,30.00,SE,132,1.0,2.0,51,0.00,,,0.00,weatherlink.com 1.10,2013-05-13 13:40:00,
2013-05-13 07:55:00,54.2,36.0,30.00,SE,127,0.0,3.0,50,0.00,,,0.00,weatherlink.com 1.10,2013-05-13 13:55:00,
2013-05-13 08:10:00,56.3,33.0,29.99,SSE,149,0.0,2.0,42,0.00,,,0.00,weatherlink.com 1.10,2013-05-13 14:10:00,
2013-05-13 08:25:00,57.9,33.0,29.99,SE,142,1.0,3.0,39,0.00,,,0.00,weatherlink.com 1.10,2013-05-13 14:25:00,
2013-05-13 08:40:00,59.1,31.0,29.99,South,181,3.0,6.0,35,0.00,,,0.00,weatherlink.com 1.10,2013-05-13 14:40:00,
2013-05-13 08:55:00,60.7,31.0,29.98,SE,136,0.0,5.0,33,0.00,,,0.00,weatherlink.com 1.10,2013-05-13 14:55:00,
2013-05-13 09:11:00,61.7,31.0,29.98,ESE,113,3.0,5.0,31,0.00,,,0.00,weatherlink.com 1.10,2013-05-13 15:11:00,
2013-05-13 09:26:00,62.4,30.0,29.98,SE,146,0.0,4.0,30,0.00,,,0.00,weatherlink.com 1.10,2013-05-13 15:26:00,
2013-05-13 09:41:00,63.9,32.0,29.98,SSE,155,2.0,6.0,30,0.00,,,0.00,weatherlink.com 1.10,2013-05-13 15:41:00,
2013-05-13 09:56:00,65.3,31.0,29.98,SE,133,0.0,5.0,28,0.00,,,0.00,weatherlink.com 1.10,2013-05-13 15:56:00,
2013-05-13 10:11:00,64.5,31.0,29.98,SE,146,1.0,9.0,29,0.00,,,0.00,weatherlink.com 1.10,2013-05-13 16:11:00,
2013-05-13 10:26:00,64.7,31.0,29.98,SSE,156,2.0,7.0,28,0.00,,,0.00,weatherlink.com 1.10,2013-05-13 16:26:00,
2013-05-13 10:41:00,65.1,29.0,29.98,SE,144,3.0,8.0,26,0.00,,,0.00,weatherlink.com 1.10,2013-05-13 16:41:00,
2013-05-13 10:56:00,66.1,30.0,29.98,ENE,63,2.0,9.0,26,0.00,,,0.00,weatherlink.com 1.10,2013-05-13 16:56:00,
2013-05-13 11:11:00,66.6,30.0,29.98,ESE,104,2.0,8.0,25,0.00,,,0.00,weatherlink.com 1.10,2013-05-13 17:11:00,
2013-05-13 11:26:00,66.9,30.0,29.98,SE,128,2.0,7.0,25,0.00,,,0.00,weatherlink.com 1.10,2013-05-13 17:26:00,
2013-05-13 11:41:00,67.8,30.0,29.97,ESE,105,2.0,5.0,24,0.00,,,0.00,weatherlink.com 1.10,2013-05-13 17:41:00,
2013-05-13 11:56:00,67.7,27.0,29.97,ESE,117,4.0,7.0,22,0.00,,,0.00,weatherlink.com 1.10,2013-05-13 17:56:00,
2013-05-13 12:11:00,68.2,29.0,29.97,SE,128,2.0,9.0,23,0.00,,,0.00,weatherlink.com 1.10,2013-05-13 18:11:00,
2013-05-13 12:26:00,68.7,28.0,29.96,SE,139,1.0,7.0,22,0.00,,,0.00,weatherlink.com 1.10,2013-05-13 18:26:00,
2013-05-13 12:41:00,68.9,31.0,29.96,NNE,14,4.0,9.0,24,0.00,,,0.00,weatherlink.com 1.10,2013-05-13 18:41:00,
2013-05-13 12:56:00,69.4,31.0,29.96,East,101,2.0,9.0,24,0.00,,,0.00,weatherlink.com 1.10,2013-05-13 18:56:00,
2013-05-13 13:11:00,69.9,28.0,29.95,SSE,165,2.0,6.0,21,0.00,,,0.00,weatherlink.com 1.10,2013-05-13 19:11:00,
2013-05-13 13:26:00,70.6,28.0,29.95,SE,127,1.0,6.0,20,0.00,,,0.00,weatherlink.com 1.10,2013-05-13 19:26:00,
2013-05-13 13:41:00,70.0,26.0,29.94,ESE,118,0.0,6.0,19,0.00,,,0.00,weatherlink.com 1.10,2013-05-13 19:41:00,
2013-05-13 13:56:00,71.2,30.0,29.94,SSW,195,2.0,8.0,22,0.00,,,0.00,weatherlink.com 1.10,2013-05-13 19:56:00,
2013-05-13 14:11:00,70.1,31.0,29.93,ESE,115,4.0,6.0,23,0.00,,,0.00,weatherlink.com 1.10,2013-05-13 20:11:00,
2013-05-13 14:26:00,69.5,31.0,29.93,South,171,2.0,9.0,24,0.00,,,0.00,weatherlink.com 1.10,2013-05-13 20:26:00,
2013-05-13 14:41:00,69.9,29.0,29.92,ESE,111,3.0,5.0,22,0.00,,,0.00,weatherlink.com 1.10,2013-05-13 20:41:00,
2013-05-13 14:56:00,71.1,29.0,29.91,South,169,1.0,5.0,21,0.00,,,0.00,weatherlink.com 1.10,2013-05-13 20:56:00,
2013-05-13 15:11:00,70.5,31.0,29.91,SE,144,0.0,7.0,23,0.00,,,0.00,weatherlink.com 1.10,2013-05-13 21:11:00,
2013-05-13 15:26:00,71.3,30.0,29.89,SSE,168,1.0,5.0,22,0.00,,,0.00,weatherlink.com 1.10,2013-05-13 21:26:00,
2013-05-13 15:41:00,70.5,30.0,29.88,ESE,116,2.0,6.0,22,0.00,,,0.00,weatherlink.com 1.10,2013-05-13 21:41:00,
2013-05-13 15:56:00,70.9,31.0,29.88,East,98,2.0,7.0,23,0.00,,,0.00,weatherlink.com 1.10,2013-05-13 21:56:00,
2013-05-13 16:12:00,70.3,31.0,29.87,SSE,160,2.0,5.0,23,0.00,,,0.00,weatherlink.com 1.10,2013-05-13 22:12:00,
2013-05-13 16:27:00,70.4,30.0,29.86,ESE,110,0.0,5.0,22,0.00,,,0.00,weatherlink.com 1.10,2013-05-13 22:27:00,
2013-05-13 16:42:00,69.9,29.0,29.86,SSE,150,2.0,5.0,22,0.00,,,0.00,weatherlink.com 1.10,2013-05-13 22:42:00,
2013-05-13 16:57:00,70.1,31.0,29.86,ESE,119,1.0,4.0,23,0.00,,,0.00,weatherlink.com 1.10,2013-05-13 22:57:00,
2013-05-13 17:12:00,70.3,31.0,29.85,SE,128,0.0,6.0,23,0.00,,,0.00,weatherlink.com 1.10,2013-05-13 23:12:00,
2013-05-13 17:27:00,70.1,32.0,29.85,East,99,0.0,3.0,24,0.00,,,0.00,weatherlink.com 1.10,2013-05-13 23:27:00,
2013-05-13 17:42:00,68.3,31.0,29.85,ESE,120,0.0,1.0,25,0.00,,,0.00,weatherlink.com 1.10,2013-05-13 23:42:00,
2013-05-13 17:57:00,67.6,30.0,29.84,ENE,70,3.0,4.0,25,0.00,,,0.00,weatherlink.com 1.10,2013-05-13 23:57:00,
2013-05-13 18:12:00,67.9,30.0,29.84,ESE,114,0.0,3.0,24,0.00,,,0.00,weatherlink.com 1.10,2013-05-14 00:12:00,
2013-05-13 18:27:00,67.8,30.0,29.83,SE,146,0.0,1.0,24,0.00,,,0.00,weatherlink.com 1.10,2013-05-14 00:27:00,
2013-05-13 18:42:00,66.6,32.0,29.83,SE,136,0.0,1.0,28,0.00,,,0.00,weatherlink.com 1.10,2013-05-14 00:42:00,
2013-05-13 18:57:00,65.0,34.0,29.83,SE,137,0.0,1.0,31,0.00,,,0.00,weatherlink.com 1.10,2013-05-14 00:57:00,
2013-05-13 19:12:00,63.0,35.0,29.83,SE,137,0.0,1.0,36,0.00,,,0.00,weatherlink.com 1.10,2013-05-14 01:12:00,
2013-05-13 19:27:00,60.8,38.0,29.83,SE,137,0.0,0.0,43,0.00,,,0.00,weatherlink.com 1.10,2013-05-14 01:27:00,
2013-05-13 19:42:00,58.7,35.0,29.84,SE,133,0.0,1.0,41,0.00,,,0.00,weatherlink.com 1.10,2013-05-14 01:42:00,
2013-05-13 19:57:00,56.7,35.0,29.83,ESE,122,0.0,0.0,45,0.00,,,0.00,weatherlink.com 1.10,2013-05-14 01:57:00,
2013-05-13 20:12:00,54.5,34.0,29.83,ESE,122,0.0,1.0,47,0.00,,,0.00,weatherlink.com 1.10,2013-05-14 02:12:00,
2013-05-13 20:27:00,52.8,35.0,29.84,ESE,122,0.0,0.0,51,0.00,,,0.00,weatherlink.com 1.10,2013-05-14 02:27:00,
2013-05-13 20:42:00,51.7,33.0,29.84,ESE,122,0.0,1.0,50,0.00,,,0.00,weatherlink.com 1.10,2013-05-14 02:42:00,
2013-05-13 20:57:00,50.2,35.0,29.85,ESE,121,0.0,1.0,56,0.00,,,0.00,weatherlink.com 1.10,2013-05-14 02:57:00,
2013-05-13 21:12:00,48.4,34.0,29.85,ESE,120,0.0,1.0,58,0.00,,,0.00,weatherlink.com 1.10,2013-05-14 03:12:00,
2013-05-13 21:27:00,47.0,34.0,29.85,ESE,120,0.0,2.0,62,0.00,,,0.00,weatherlink.com 1.10,2013-05-14 03:27:00,
2013-05-13 21:42:00,46.1,34.0,29.85,ESE,118,0.0,1.0,64,0.00,,,0.00,weatherlink.com 1.10,2013-05-14 03:42:00,
2013-05-13 21:57:00,45.0,34.0,29.85,ESE,117,0.0,1.0,65,0.00,,,0.00,weatherlink.com 1.10,2013-05-14 03:57:00,
2013-05-13 22:12:00,44.3,34.0,29.85,ESE,113,0.0,2.0,67,0.00,,,0.00,weatherlink.com 1.10,2013-05-14 04:12:00,
2013-05-13 22:27:00,43.9,34.0,29.85,ESE,109,1.0,2.0,68,0.00,,,0.00,weatherlink.com 1.10,2013-05-14 04:27:00,
2013-05-13 22:42:00,43.6,34.0,29.84,ESE,102,0.0,2.0,69,0.00,,,0.00,weatherlink.com 1.10,2013-05-14 04:42:00,
2013-05-13 22:57:00,43.4,34.0,29.84,ESE,113,0.0,2.0,69,0.00,,,0.00,weatherlink.com 1.10,2013-05-14 04:57:00,
2013-05-13 23:12:00,42.8,34.0,29.84,East,100,0.0,2.0,71,0.00,,,0.00,weatherlink.com 1.10,2013-05-14 05:12:00,
2013-05-13 23:27:00,43.0,34.0,29.84,ESE,108,0.0,2.0,70,0.00,,,0.00,weatherlink.com 1.10,2013-05-14 05:27:00,
2013-05-13 23:42:00,42.8,33.0,29.83,East,99,1.0,2.0,69,0.00,,,0.00,weatherlink.com 1.10,2013-05-14 05:42:00,
2013-05-13 23:57:00,43.1,32.0,29.83,SE,124,2.0,3.0,66,0.00,,,0.00,weatherlink.com 1.10,2013-05-14 05:57:00,